sensor_id;sensor_type;location;lat;lon;timestamp;P1;durP1;ratioP1;P2;durP2;ratioP2
12980;SDS011;6555;50.468;8.480;2022-12-19T00:04:58;9.20;;;5.90;;
12980;SDS011;6555;50.468;8.480;2022-12-19T00:10:01;12.13;;;8.03;;
12980;SDS011;6555;50.468;8.480;2022-12-19T00:15:06;16.57;;;10.30;;
12980;SDS011;6555;50.468;8.480;2022-12-19T00:20:10;21.47;;;12.70;;
12980;SDS011;6555;50.468;8.480;2022-12-19T00:25:21;16.60;;;10.77;;
12980;SDS011;6555;50.468;8.480;2022-12-19T00:30:26;11.60;;;7.90;;
12980;SDS011;6555;50.468;8.480;2022-12-19T00:35:30;14.40;;;8.80;;
12980;SDS011;6555;50.468;8.480;2022-12-19T00:40:33;14.17;;;8.93;;
12980;SDS011;6555;50.468;8.480;2022-12-19T00:45:37;9.87;;;6.80;;
12980;SDS011;6555;50.468;8.480;2022-12-19T00:50:40;13.43;;;9.13;;
12980;SDS011;6555;50.468;8.480;2022-12-19T00:55:44;11.17;;;7.47;;
12980;SDS011;6555;50.468;8.480;2022-12-19T01:00:49;11.10;;;7.10;;
12980;SDS011;6555;50.468;8.480;2022-12-19T01:05:52;9.63;;;6.83;;
12980;SDS011;6555;50.468;8.480;2022-12-19T01:10:57;9.53;;;6.67;;
12980;SDS011;6555;50.468;8.480;2022-12-19T01:16:02;7.93;;;4.87;;
12980;SDS011;6555;50.468;8.480;2022-12-19T01:21:06;9.40;;;6.43;;
12980;SDS011;6555;50.468;8.480;2022-12-19T01:26:12;14.37;;;8.60;;
12980;SDS011;6555;50.468;8.480;2022-12-19T01:31:16;13.03;;;8.10;;
12980;SDS011;6555;50.468;8.480;2022-12-19T01:36:19;13.13;;;8.67;;
12980;SDS011;6555;50.468;8.480;2022-12-19T01:41:22;13.30;;;9.30;;
12980;SDS011;6555;50.468;8.480;2022-12-19T01:46:29;11.17;;;7.60;;
12980;SDS011;6555;50.468;8.480;2022-12-19T01:51:36;13.10;;;8.63;;
12980;SDS011;6555;50.468;8.480;2022-12-19T01:56:44;14.93;;;9.23;;
12980;SDS011;6555;50.468;8.480;2022-12-19T02:01:53;8.90;;;6.27;;
12980;SDS011;6555;50.468;8.480;2022-12-19T02:07:00;8.83;;;5.57;;
12980;SDS011;6555;50.468;8.480;2022-12-19T02:12:16;8.90;;;5.57;;
12980;SDS011;6555;50.468;8.480;2022-12-19T02:17:23;6.93;;;5.13;;
12980;SDS011;6555;50.468;8.480;2022-12-19T02:22:36;7.03;;;5.03;;
12980;SDS011;6555;50.468;8.480;2022-12-19T02:33:20;8.50;;;6.20;;
12980;SDS011;6555;50.468;8.480;2022-12-19T02:38:31;6.53;;;4.90;;
12980;SDS011;6555;50.468;8.480;2022-12-19T02:43:43;7.07;;;4.87;;
12980;SDS011;6555;50.468;8.480;2022-12-19T02:49:01;6.53;;;5.03;;
12980;SDS011;6555;50.468;8.480;2022-12-19T02:54:05;8.53;;;6.00;;
12980;SDS011;6555;50.468;8.480;2022-12-19T03:04:43;6.80;;;5.13;;
12980;SDS011;6555;50.468;8.480;2022-12-19T03:09:56;8.40;;;6.87;;
12980;SDS011;6555;50.468;8.480;2022-12-19T03:15:07;6.77;;;5.10;;
12980;SDS011;6555;50.468;8.480;2022-12-19T03:20:17;8.43;;;5.30;;
12980;SDS011;6555;50.468;8.480;2022-12-19T03:25:25;8.57;;;5.70;;
12980;SDS011;6555;50.468;8.480;2022-12-19T03:30:31;9.40;;;6.00;;
12980;SDS011;6555;50.468;8.480;2022-12-19T03:35:37;9.37;;;5.77;;
12980;SDS011;6555;50.468;8.480;2022-12-19T03:40:42;8.33;;;6.17;;
12980;SDS011;6555;50.468;8.480;2022-12-19T03:45:49;7.60;;;5.93;;
12980;SDS011;6555;50.468;8.480;2022-12-19T03:51:02;9.23;;;6.60;;
12980;SDS011;6555;50.468;8.480;2022-12-19T03:56:12;6.60;;;5.07;;
12980;SDS011;6555;50.468;8.480;2022-12-19T04:01:19;8.53;;;5.43;;
12980;SDS011;6555;50.468;8.480;2022-12-19T04:06:24;9.27;;;6.43;;
12980;SDS011;6555;50.468;8.480;2022-12-19T04:11:30;7.30;;;5.67;;
12980;SDS011;6555;50.468;8.480;2022-12-19T04:16:40;7.60;;;5.77;;
12980;SDS011;6555;50.468;8.480;2022-12-19T04:21:48;10.17;;;6.87;;
12980;SDS011;6555;50.468;8.480;2022-12-19T04:26:55;11.27;;;7.73;;
12980;SDS011;6555;50.468;8.480;2022-12-19T04:32:01;11.10;;;6.77;;
12980;SDS011;6555;50.468;8.480;2022-12-19T04:37:07;8.10;;;6.00;;
12980;SDS011;6555;50.468;8.480;2022-12-19T04:42:10;7.00;;;5.23;;
12980;SDS011;6555;50.468;8.480;2022-12-19T04:47:13;7.07;;;5.23;;
12980;SDS011;6555;50.468;8.480;2022-12-19T04:52:17;9.27;;;6.13;;
12980;SDS011;6555;50.468;8.480;2022-12-19T04:57:20;8.17;;;5.63;;
12980;SDS011;6555;50.468;8.480;2022-12-19T05:02:23;8.00;;;5.10;;
12980;SDS011;6555;50.468;8.480;2022-12-19T05:07:28;8.17;;;5.73;;
12980;SDS011;6555;50.468;8.480;2022-12-19T05:12:31;9.70;;;6.53;;
12980;SDS011;6555;50.468;8.480;2022-12-19T05:17:34;8.93;;;6.30;;
12980;SDS011;6555;50.468;8.480;2022-12-19T05:22:39;7.70;;;5.90;;
12980;SDS011;6555;50.468;8.480;2022-12-19T05:27:42;8.57;;;6.30;;
12980;SDS011;6555;50.468;8.480;2022-12-19T05:32:45;8.80;;;6.17;;
12980;SDS011;6555;50.468;8.480;2022-12-19T05:37:50;9.77;;;6.43;;
12980;SDS011;6555;50.468;8.480;2022-12-19T05:42:53;9.57;;;5.97;;
12980;SDS011;6555;50.468;8.480;2022-12-19T05:47:56;9.77;;;6.00;;
12980;SDS011;6555;50.468;8.480;2022-12-19T05:53:03;8.00;;;5.77;;
12980;SDS011;6555;50.468;8.480;2022-12-19T05:58:06;9.17;;;6.43;;
12980;SDS011;6555;50.468;8.480;2022-12-19T06:03:09;8.80;;;6.50;;
12980;SDS011;6555;50.468;8.480;2022-12-19T06:08:14;10.73;;;6.93;;
12980;SDS011;6555;50.468;8.480;2022-12-19T06:13:17;9.93;;;7.03;;
12980;SDS011;6555;50.468;8.480;2022-12-19T06:18:25;9.63;;;6.77;;
12980;SDS011;6555;50.468;8.480;2022-12-19T06:23:32;10.13;;;6.70;;
12980;SDS011;6555;50.468;8.480;2022-12-19T06:28:36;8.30;;;5.90;;
12980;SDS011;6555;50.468;8.480;2022-12-19T06:33:39;8.40;;;5.80;;
12980;SDS011;6555;50.468;8.480;2022-12-19T06:38:44;9.53;;;6.57;;
12980;SDS011;6555;50.468;8.480;2022-12-19T06:43:47;12.77;;;8.37;;
12980;SDS011;6555;50.468;8.480;2022-12-19T06:48:54;11.77;;;7.70;;
12980;SDS011;6555;50.468;8.480;2022-12-19T06:53:58;8.67;;;6.57;;
12980;SDS011;6555;50.468;8.480;2022-12-19T06:59:01;11.20;;;7.63;;
12980;SDS011;6555;50.468;8.480;2022-12-19T07:04:05;10.13;;;7.37;;
12980;SDS011;6555;50.468;8.480;2022-12-19T07:09:10;9.83;;;7.03;;
12980;SDS011;6555;50.468;8.480;2022-12-19T07:14:13;9.17;;;6.50;;
12980;SDS011;6555;50.468;8.480;2022-12-19T07:19:16;9.07;;;6.30;;
12980;SDS011;6555;50.468;8.480;2022-12-19T07:24:21;7.33;;;5.93;;
12980;SDS011;6555;50.468;8.480;2022-12-19T07:29:24;8.73;;;6.60;;
12980;SDS011;6555;50.468;8.480;2022-12-19T07:34:28;10.57;;;7.20;;
12980;SDS011;6555;50.468;8.480;2022-12-19T07:39:33;9.63;;;6.97;;
12980;SDS011;6555;50.468;8.480;2022-12-19T07:44:36;8.40;;;6.07;;
12980;SDS011;6555;50.468;8.480;2022-12-19T07:49:39;9.97;;;7.57;;
12980;SDS011;6555;50.468;8.480;2022-12-19T07:54:44;10.10;;;7.33;;
12980;SDS011;6555;50.468;8.480;2022-12-19T07:59:47;9.57;;;7.13;;
12980;SDS011;6555;50.468;8.480;2022-12-19T08:04:50;9.03;;;6.63;;
12980;SDS011;6555;50.468;8.480;2022-12-19T08:09:54;9.30;;;6.57;;
12980;SDS011;6555;50.468;8.480;2022-12-19T08:14:57;11.27;;;7.17;;
12980;SDS011;6555;50.468;8.480;2022-12-19T08:20:00;9.60;;;6.67;;
12980;SDS011;6555;50.468;8.480;2022-12-19T08:25:06;9.67;;;6.83;;
12980;SDS011;6555;50.468;8.480;2022-12-19T08:30:11;9.47;;;6.47;;
12980;SDS011;6555;50.468;8.480;2022-12-19T08:35:15;9.43;;;6.53;;
12980;SDS011;6555;50.468;8.480;2022-12-19T08:40:23;9.60;;;6.53;;
12980;SDS011;6555;50.468;8.480;2022-12-19T08:45:26;10.83;;;6.90;;
12980;SDS011;6555;50.468;8.480;2022-12-19T08:50:30;11.03;;;7.67;;
12980;SDS011;6555;50.468;8.480;2022-12-19T08:55:35;11.07;;;7.33;;
12980;SDS011;6555;50.468;8.480;2022-12-19T09:00:38;8.90;;;6.80;;
12980;SDS011;6555;50.468;8.480;2022-12-19T09:05:41;8.30;;;5.83;;
12980;SDS011;6555;50.468;8.480;2022-12-19T09:11:06;9.67;;;6.23;;
12980;SDS011;6555;50.468;8.480;2022-12-19T09:16:11;8.33;;;6.53;;
12980;SDS011;6555;50.468;8.480;2022-12-19T09:21:15;8.27;;;5.77;;
12980;SDS011;6555;50.468;8.480;2022-12-19T09:26:24;9.53;;;6.80;;
12980;SDS011;6555;50.468;8.480;2022-12-19T09:31:33;10.73;;;6.93;;
12980;SDS011;6555;50.468;8.480;2022-12-19T09:36:36;10.80;;;6.93;;
12980;SDS011;6555;50.468;8.480;2022-12-19T09:41:48;9.13;;;6.57;;
12980;SDS011;6555;50.468;8.480;2022-12-19T09:47:04;8.47;;;6.67;;
12980;SDS011;6555;50.468;8.480;2022-12-19T09:52:15;11.03;;;7.53;;
12980;SDS011;6555;50.468;8.480;2022-12-19T09:57:22;9.30;;;6.63;;
12980;SDS011;6555;50.468;8.480;2022-12-19T10:02:33;8.50;;;6.43;;
12980;SDS011;6555;50.468;8.480;2022-12-19T10:07:43;8.13;;;6.03;;
12980;SDS011;6555;50.468;8.480;2022-12-19T10:13:11;11.97;;;8.37;;
12980;SDS011;6555;50.468;8.480;2022-12-19T10:24:07;8.50;;;6.03;;
12980;SDS011;6555;50.468;8.480;2022-12-19T10:29:39;9.23;;;6.37;;
12980;SDS011;6555;50.468;8.480;2022-12-19T10:34:52;7.73;;;6.13;;
12980;SDS011;6555;50.468;8.480;2022-12-19T10:39:58;7.23;;;5.70;;
12980;SDS011;6555;50.468;8.480;2022-12-19T10:45:16;7.53;;;5.40;;
12980;SDS011;6555;50.468;8.480;2022-12-19T10:50:21;7.80;;;6.00;;
12980;SDS011;6555;50.468;8.480;2022-12-19T10:55:29;7.00;;;4.83;;
12980;SDS011;6555;50.468;8.480;2022-12-19T11:00:45;6.93;;;4.83;;
12980;SDS011;6555;50.468;8.480;2022-12-19T11:06:03;7.73;;;5.73;;
12980;SDS011;6555;50.468;8.480;2022-12-19T11:11:11;8.33;;;5.57;;
12980;SDS011;6555;50.468;8.480;2022-12-19T11:16:36;7.37;;;5.37;;
12980;SDS011;6555;50.468;8.480;2022-12-19T11:22:01;9.00;;;6.27;;
12980;SDS011;6555;50.468;8.480;2022-12-19T11:27:30;9.17;;;6.37;;
12980;SDS011;6555;50.468;8.480;2022-12-19T11:33:07;13.93;;;7.93;;
12980;SDS011;6555;50.468;8.480;2022-12-19T11:38:15;10.73;;;7.33;;
12980;SDS011;6555;50.468;8.480;2022-12-19T11:43:23;11.30;;;7.73;;
12980;SDS011;6555;50.468;8.480;2022-12-19T11:48:49;10.80;;;7.17;;
12980;SDS011;6555;50.468;8.480;2022-12-19T11:53:55;8.63;;;6.43;;
12980;SDS011;6555;50.468;8.480;2022-12-19T11:59:10;8.10;;;6.17;;
12980;SDS011;6555;50.468;8.480;2022-12-19T12:10:02;7.40;;;5.73;;
12980;SDS011;6555;50.468;8.480;2022-12-19T12:15:40;8.53;;;5.40;;
12980;SDS011;6555;50.468;8.480;2022-12-19T12:21:13;9.43;;;6.40;;
12980;SDS011;6555;50.468;8.480;2022-12-19T12:26:44;8.70;;;5.70;;
12980;SDS011;6555;50.468;8.480;2022-12-19T12:32:20;8.97;;;5.77;;
12980;SDS011;6555;50.468;8.480;2022-12-19T12:37:51;7.67;;;5.57;;
12980;SDS011;6555;50.468;8.480;2022-12-19T12:43:30;8.97;;;6.00;;
12980;SDS011;6555;50.468;8.480;2022-12-19T12:48:44;9.47;;;6.80;;
12980;SDS011;6555;50.468;8.480;2022-12-19T12:53:56;8.63;;;5.80;;
12980;SDS011;6555;50.468;8.480;2022-12-19T12:59:05;9.07;;;6.10;;
12980;SDS011;6555;50.468;8.480;2022-12-19T13:04:27;9.53;;;7.07;;
12980;SDS011;6555;50.468;8.480;2022-12-19T13:09:34;7.87;;;5.77;;
12980;SDS011;6555;50.468;8.480;2022-12-19T13:25:50;6.77;;;5.20;;
12980;SDS011;6555;50.468;8.480;2022-12-19T13:31:16;8.93;;;5.83;;
12980;SDS011;6555;50.468;8.480;2022-12-19T13:42:11;7.60;;;5.53;;
12980;SDS011;6555;50.468;8.480;2022-12-19T13:47:42;8.50;;;6.17;;
12980;SDS011;6555;50.468;8.480;2022-12-19T13:52:47;7.60;;;5.80;;
12980;SDS011;6555;50.468;8.480;2022-12-19T13:57:52;8.17;;;6.27;;
12980;SDS011;6555;50.468;8.480;2022-12-19T14:02:56;8.20;;;5.60;;
12980;SDS011;6555;50.468;8.480;2022-12-19T14:08:01;8.63;;;6.17;;
12980;SDS011;6555;50.468;8.480;2022-12-19T14:13:10;7.73;;;5.67;;
12980;SDS011;6555;50.468;8.480;2022-12-19T14:18:55;8.77;;;6.00;;
12980;SDS011;6555;50.468;8.480;2022-12-19T14:24:07;10.90;;;6.87;;
12980;SDS011;6555;50.468;8.480;2022-12-19T14:29:13;8.47;;;6.33;;
12980;SDS011;6555;50.468;8.480;2022-12-19T14:34:41;8.07;;;5.93;;
12980;SDS011;6555;50.468;8.480;2022-12-19T14:40:24;9.30;;;6.40;;
12980;SDS011;6555;50.468;8.480;2022-12-19T14:45:32;10.53;;;6.67;;
12980;SDS011;6555;50.468;8.480;2022-12-19T14:51:01;7.87;;;6.80;;
12980;SDS011;6555;50.468;8.480;2022-12-19T14:56:26;8.97;;;6.47;;
12980;SDS011;6555;50.468;8.480;2022-12-19T15:01:57;8.33;;;5.47;;
12980;SDS011;6555;50.468;8.480;2022-12-19T15:07:04;11.03;;;7.30;;
12980;SDS011;6555;50.468;8.480;2022-12-19T15:12:13;9.13;;;6.17;;
12980;SDS011;6555;50.468;8.480;2022-12-19T15:17:55;13.10;;;8.37;;
12980;SDS011;6555;50.468;8.480;2022-12-19T15:22:58;11.60;;;8.40;;
12980;SDS011;6555;50.468;8.480;2022-12-19T15:28:04;9.17;;;6.67;;
12980;SDS011;6555;50.468;8.480;2022-12-19T15:33:13;9.53;;;6.60;;
12980;SDS011;6555;50.468;8.480;2022-12-19T15:38:17;10.10;;;6.93;;
12980;SDS011;6555;50.468;8.480;2022-12-19T15:43:20;10.87;;;7.23;;
12980;SDS011;6555;50.468;8.480;2022-12-19T15:48:46;9.30;;;6.80;;
12980;SDS011;6555;50.468;8.480;2022-12-19T15:53:51;8.73;;;6.97;;
12980;SDS011;6555;50.468;8.480;2022-12-19T15:59:04;8.30;;;5.97;;
12980;SDS011;6555;50.468;8.480;2022-12-19T16:04:15;13.20;;;7.57;;
12980;SDS011;6555;50.468;8.480;2022-12-19T16:09:19;11.07;;;7.73;;
12980;SDS011;6555;50.468;8.480;2022-12-19T16:14:24;7.70;;;6.07;;
12980;SDS011;6555;50.468;8.480;2022-12-19T16:19:29;8.43;;;5.67;;
12980;SDS011;6555;50.468;8.480;2022-12-19T16:24:32;6.50;;;5.57;;
12980;SDS011;6555;50.468;8.480;2022-12-19T16:29:35;9.53;;;6.00;;
12980;SDS011;6555;50.468;8.480;2022-12-19T16:34:43;7.47;;;6.30;;
12980;SDS011;6555;50.468;8.480;2022-12-19T16:39:46;6.20;;;5.20;;
12980;SDS011;6555;50.468;8.480;2022-12-19T16:44:49;7.97;;;5.30;;
12980;SDS011;6555;50.468;8.480;2022-12-19T16:49:55;6.80;;;5.53;;
12980;SDS011;6555;50.468;8.480;2022-12-19T16:54:58;11.93;;;6.87;;
12980;SDS011;6555;50.468;8.480;2022-12-19T17:00:01;14.13;;;8.03;;
12980;SDS011;6555;50.468;8.480;2022-12-19T17:05:08;16.47;;;9.60;;
12980;SDS011;6555;50.468;8.480;2022-12-19T17:10:20;9.60;;;6.17;;
12980;SDS011;6555;50.468;8.480;2022-12-19T17:15:27;7.87;;;5.47;;
12980;SDS011;6555;50.468;8.480;2022-12-19T17:20:36;6.63;;;5.63;;
12980;SDS011;6555;50.468;8.480;2022-12-19T17:25:40;11.03;;;7.63;;
12980;SDS011;6555;50.468;8.480;2022-12-19T17:30:45;7.63;;;6.47;;
12980;SDS011;6555;50.468;8.480;2022-12-19T17:35:53;8.17;;;6.53;;
12980;SDS011;6555;50.468;8.480;2022-12-19T17:40:56;10.13;;;7.53;;
12980;SDS011;6555;50.468;8.480;2022-12-19T17:45:59;8.00;;;6.63;;
12980;SDS011;6555;50.468;8.480;2022-12-19T17:51:04;6.17;;;5.27;;
12980;SDS011;6555;50.468;8.480;2022-12-19T17:56:08;7.37;;;6.20;;
12980;SDS011;6555;50.468;8.480;2022-12-19T18:01:17;8.43;;;6.83;;
12980;SDS011;6555;50.468;8.480;2022-12-19T18:06:23;12.47;;;7.60;;
12980;SDS011;6555;50.468;8.480;2022-12-19T18:11:28;11.47;;;8.80;;
12980;SDS011;6555;50.468;8.480;2022-12-19T18:16:40;12.70;;;9.50;;
12980;SDS011;6555;50.468;8.480;2022-12-19T18:21:46;15.33;;;10.80;;
12980;SDS011;6555;50.468;8.480;2022-12-19T18:26:49;9.97;;;7.83;;
12980;SDS011;6555;50.468;8.480;2022-12-19T18:31:53;7.33;;;5.93;;
12980;SDS011;6555;50.468;8.480;2022-12-19T18:36:58;7.40;;;5.73;;
12980;SDS011;6555;50.468;8.480;2022-12-19T18:42:01;6.80;;;5.40;;
12980;SDS011;6555;50.468;8.480;2022-12-19T18:47:16;7.70;;;6.67;;
12980;SDS011;6555;50.468;8.480;2022-12-19T18:52:23;8.13;;;6.03;;
12980;SDS011;6555;50.468;8.480;2022-12-19T18:57:26;7.37;;;5.77;;
12980;SDS011;6555;50.468;8.480;2022-12-19T19:02:29;6.97;;;5.20;;
12980;SDS011;6555;50.468;8.480;2022-12-19T19:07:34;10.63;;;8.77;;
12980;SDS011;6555;50.468;8.480;2022-12-19T19:12:37;15.13;;;9.60;;
12980;SDS011;6555;50.468;8.480;2022-12-19T19:17:41;8.67;;;6.33;;
12980;SDS011;6555;50.468;8.480;2022-12-19T19:22:45;12.33;;;8.10;;
12980;SDS011;6555;50.468;8.480;2022-12-19T19:27:49;8.90;;;6.83;;
12980;SDS011;6555;50.468;8.480;2022-12-19T19:32:52;16.13;;;10.00;;
12980;SDS011;6555;50.468;8.480;2022-12-19T19:38:00;14.83;;;9.73;;
12980;SDS011;6555;50.468;8.480;2022-12-19T19:43:07;10.57;;;7.27;;
12980;SDS011;6555;50.468;8.480;2022-12-19T19:48:10;8.23;;;5.60;;
12980;SDS011;6555;50.468;8.480;2022-12-19T19:53:15;9.37;;;5.63;;
12980;SDS011;6555;50.468;8.480;2022-12-19T19:58:18;6.83;;;5.40;;
12980;SDS011;6555;50.468;8.480;2022-12-19T20:03:21;8.53;;;6.27;;
12980;SDS011;6555;50.468;8.480;2022-12-19T20:08:26;9.43;;;6.90;;
12980;SDS011;6555;50.468;8.480;2022-12-19T20:13:39;7.13;;;5.50;;
12980;SDS011;6555;50.468;8.480;2022-12-19T20:18:45;8.77;;;6.43;;
12980;SDS011;6555;50.468;8.480;2022-12-19T20:23:50;6.23;;;5.40;;
12980;SDS011;6555;50.468;8.480;2022-12-19T20:28:54;9.50;;;6.90;;
12980;SDS011;6555;50.468;8.480;2022-12-19T20:33:57;9.20;;;6.30;;
12980;SDS011;6555;50.468;8.480;2022-12-19T20:39:02;9.70;;;6.77;;
12980;SDS011;6555;50.468;8.480;2022-12-19T20:44:06;9.57;;;6.63;;
12980;SDS011;6555;50.468;8.480;2022-12-19T20:49:09;11.13;;;7.83;;
12980;SDS011;6555;50.468;8.480;2022-12-19T20:54:13;11.47;;;7.63;;
12980;SDS011;6555;50.468;8.480;2022-12-19T20:59:16;10.57;;;7.20;;
12980;SDS011;6555;50.468;8.480;2022-12-19T21:04:19;8.47;;;6.20;;
12980;SDS011;6555;50.468;8.480;2022-12-19T21:09:25;10.07;;;6.57;;
12980;SDS011;6555;50.468;8.480;2022-12-19T21:14:28;8.43;;;6.23;;
12980;SDS011;6555;50.468;8.480;2022-12-19T21:19:31;8.50;;;6.40;;
12980;SDS011;6555;50.468;8.480;2022-12-19T21:24:35;8.87;;;5.97;;
12980;SDS011;6555;50.468;8.480;2022-12-19T21:29:38;10.17;;;6.87;;
12980;SDS011;6555;50.468;8.480;2022-12-19T21:34:41;10.00;;;7.47;;
12980;SDS011;6555;50.468;8.480;2022-12-19T21:39:45;8.37;;;6.53;;
12980;SDS011;6555;50.468;8.480;2022-12-19T21:44:48;8.93;;;5.77;;
12980;SDS011;6555;50.468;8.480;2022-12-19T21:49:52;7.77;;;6.20;;
12980;SDS011;6555;50.468;8.480;2022-12-19T21:54:56;9.17;;;7.00;;
12980;SDS011;6555;50.468;8.480;2022-12-19T21:59:59;10.63;;;7.60;;
12980;SDS011;6555;50.468;8.480;2022-12-19T22:05:05;11.50;;;7.90;;
12980;SDS011;6555;50.468;8.480;2022-12-19T22:10:10;9.27;;;6.47;;
12980;SDS011;6555;50.468;8.480;2022-12-19T22:15:13;7.73;;;5.80;;
12980;SDS011;6555;50.468;8.480;2022-12-19T22:20:16;8.20;;;6.00;;
12980;SDS011;6555;50.468;8.480;2022-12-19T22:25:21;8.13;;;6.20;;
12980;SDS011;6555;50.468;8.480;2022-12-19T22:30:24;9.07;;;6.90;;
12980;SDS011;6555;50.468;8.480;2022-12-19T22:35:27;8.30;;;6.00;;
12980;SDS011;6555;50.468;8.480;2022-12-19T22:40:31;7.40;;;5.87;;
12980;SDS011;6555;50.468;8.480;2022-12-19T22:45:35;9.13;;;6.63;;
12980;SDS011;6555;50.468;8.480;2022-12-19T22:50:43;8.07;;;5.87;;
12980;SDS011;6555;50.468;8.480;2022-12-19T22:55:49;8.13;;;5.90;;
12980;SDS011;6555;50.468;8.480;2022-12-19T23:00:51;8.07;;;5.90;;
12980;SDS011;6555;50.468;8.480;2022-12-19T23:05:55;7.27;;;5.37;;
12980;SDS011;6555;50.468;8.480;2022-12-19T23:10:59;7.27;;;5.60;;
12980;SDS011;6555;50.468;8.480;2022-12-19T23:16:03;9.27;;;6.47;;
12980;SDS011;6555;50.468;8.480;2022-12-19T23:21:08;8.63;;;5.87;;
12980;SDS011;6555;50.468;8.480;2022-12-19T23:26:15;8.03;;;5.80;;
12980;SDS011;6555;50.468;8.480;2022-12-19T23:31:19;8.47;;;5.73;;
12980;SDS011;6555;50.468;8.480;2022-12-19T23:36:23;7.50;;;5.80;;
12980;SDS011;6555;50.468;8.480;2022-12-19T23:41:48;8.00;;;5.60;;
12980;SDS011;6555;50.468;8.480;2022-12-19T23:46:51;8.00;;;5.90;;
12980;SDS011;6555;50.468;8.480;2022-12-19T23:52:03;10.50;;;6.67;;
12980;SDS011;6555;50.468;8.480;2022-12-19T23:57:07;8.60;;;6.63;;
